Time;durP1;ratioP1;P1;durP2;ratioP2;P2;SDS_P1;SDS_P2;PMS_P1;PMS_P2;Temp;Humidity;BMP_temperature;BMP_pressure;BME280_temperature;BME280_humidity;BME280_pressure;Samples;Min_cycle;Max_cycle;Signal;HPM_P1;HPM_P2
2021/08/20 00:01:14;;;;;;;32.20;28.33;;;;;;;;;;5077217;28;20449;-69
2021/08/20 00:03:41;;;;;;;36.93;27.00;;;;;;;;;;5077297;28;20880;-69
2021/08/20 00:06:09;;;;;;;37.63;27.77;;;;;;;;;;5076373;28;20444;-69
2021/08/20 00:08:37;;;;;;;32.90;26.30;;;;;;;;;;5076581;28;20451;-68
2021/08/20 00:11:04;;;;;;;33.83;25.80;;;;;;;;;;5076791;28;20532;-68
2021/08/20 00:13:32;;;;;;;32.37;24.47;;;;;;;;;;5076291;28;20440;-69
2021/08/20 00:16:00;;;;;;;32.23;24.47;;;;;;;;;;5076294;28;20534;-69
2021/08/20 00:18:27;;;;;;;27.30;23.40;;;;;;;;;;5076170;28;20456;-69
2021/08/20 00:20:54;;;;;;;28.00;21.83;;;;;;;;;;5075860;28;20934;-69
2021/08/20 00:23:21;;;;;;;26.27;20.27;;;;;;;;;;5076325;28;20474;-69
2021/08/20 00:25:48;;;;;;;23.40;18.80;;;;;;;;;;5075764;28;20532;-69
2021/08/20 00:28:18;;;;;;;20.90;17.63;;;;;;;;;;5075727;28;20529;-69
2021/08/20 00:30:47;;;;;;;23.00;18.90;;;;;;;;;;5075922;28;20913;-68
2021/08/20 00:33:14;;;;;;;23.27;18.90;;;;;;;;;;5076080;28;20858;-69
2021/08/20 00:35:42;;;;;;;21.73;18.07;;;;;;;;;;5076407;28;20444;-69
2021/08/20 00:38:09;;;;;;;25.50;20.07;;;;;;;;;;5075782;28;20450;-69
2021/08/20 00:40:36;;;;;;;21.20;18.90;;;;;;;;;;5075487;28;20947;-69
2021/08/20 00:43:03;;;;;;;19.70;16.47;;;;;;;;;;5074678;28;20541;-69
2021/08/20 00:45:30;;;;;;;24.77;18.10;;;;;;;;;;5076252;28;20790;-69
2021/08/20 00:47:59;;;;;;;22.03;18.30;;;;;;;;;;5075626;28;20445;-69
2021/08/20 00:50:26;;;;;;;23.87;18.57;;;;;;;;;;5075753;28;20472;-69
2021/08/20 00:52:54;;;;;;;19.93;17.83;;;;;;;;;;5075499;28;20453;-68
2021/08/20 00:55:23;;;;;;;21.47;17.87;;;;;;;;;;5075746;28;20441;-69
2021/08/20 00:57:51;;;;;;;24.07;18.17;;;;;;;;;;5075779;28;20480;-68
2021/08/20 01:00:19;;;;;;;20.50;16.87;;;;;;;;;;5075404;28;20626;-69
2021/08/20 01:02:46;;;;;;;24.17;17.03;;;;;;;;;;5075706;28;20437;-69
2021/08/20 01:05:18;;;;;;;20.70;17.80;;;;;;;;;;5075270;28;20445;-69
2021/08/20 01:07:46;;;;;;;23.60;18.73;;;;;;;;;;5075940;28;20457;-69
2021/08/20 01:10:15;;;;;;;20.30;16.67;;;;;;;;;;5075163;28;20480;-69
2021/08/20 01:12:42;;;;;;;20.90;17.47;;;;;;;;;;5075702;28;20446;-69
2021/08/20 01:15:11;;;;;;;26.10;16.97;;;;;;;;;;5075119;28;20437;-69
2021/08/20 01:17:38;;;;;;;20.07;17.40;;;;;;;;;;5075163;28;20441;-69
2021/08/20 01:20:07;;;;;;;21.97;17.37;;;;;;;;;;5075454;28;20448;-69
2021/08/20 01:22:36;;;;;;;23.97;17.97;;;;;;;;;;5074874;28;20467;-68
2021/08/20 01:25:05;;;;;;;22.10;18.20;;;;;;;;;;5074953;28;20428;-69
2021/08/20 01:27:33;;;;;;;22.00;17.40;;;;;;;;;;5074885;28;20890;-68
2021/08/20 01:30:01;;;;;;;23.90;17.27;;;;;;;;;;5074732;28;20533;-69
2021/08/20 01:32:28;;;;;;;19.90;17.43;;;;;;;;;;5074762;28;20445;-69
2021/08/20 01:34:55;;;;;;;20.60;17.00;;;;;;;;;;5075816;28;20450;-69
2021/08/20 01:37:22;;;;;;;23.63;17.20;;;;;;;;;;5074776;28;20441;-68
2021/08/20 01:39:49;;;;;;;21.90;16.70;;;;;;;;;;5074985;28;20453;-68
2021/08/20 01:42:19;;;;;;;22.00;18.07;;;;;;;;;;5074813;28;20438;-68
2021/08/20 01:44:46;;;;;;;20.50;16.03;;;;;;;;;;5074743;28;20440;-68
2021/08/20 01:47:14;;;;;;;21.87;17.50;;;;;;;;;;5074438;28;20444;-68
2021/08/20 01:49:42;;;;;;;21.60;15.70;;;;;;;;;;5074929;28;20480;-68
2021/08/20 01:52:10;;;;;;;18.27;16.10;;;;;;;;;;5074305;28;20437;-69
2021/08/20 01:54:37;;;;;;;22.70;16.63;;;;;;;;;;5074009;28;20454;-69
2021/08/20 01:57:04;;;;;;;19.03;17.07;;;;;;;;;;5073949;28;20456;-69
2021/08/20 01:59:33;;;;;;;17.60;15.73;;;;;;;;;;5074780;28;20442;-69
2021/08/20 02:02:00;;;;;;;18.47;16.03;;;;;;;;;;5074131;28;20933;-68
2021/08/20 02:04:27;;;;;;;19.40;16.17;;;;;;;;;;5074561;28;20449;-69
2021/08/20 02:06:54;;;;;;;20.70;16.33;;;;;;;;;;5074049;28;20440;-69
2021/08/20 02:09:21;;;;;;;18.87;14.33;;;;;;;;;;5073685;28;20937;-69
2021/08/20 02:11:50;;;;;;;18.60;16.10;;;;;;;;;;5074029;28;20442;-68
2021/08/20 02:14:17;;;;;;;19.13;16.00;;;;;;;;;;5074408;28;20535;-68
2021/08/20 02:16:46;;;;;;;22.77;16.00;;;;;;;;;;5073955;28;20446;-68
2021/08/20 02:19:13;;;;;;;24.87;17.70;;;;;;;;;;5073556;28;20440;-68
2021/08/20 02:21:40;;;;;;;20.50;15.40;;;;;;;;;;5073747;28;20456;-68
2021/08/20 02:24:07;;;;;;;17.47;14.97;;;;;;;;;;5073501;28;20942;-69
2021/08/20 02:26:34;;;;;;;19.57;15.50;;;;;;;;;;5073514;28;20934;-69
2021/08/20 02:29:02;;;;;;;18.17;15.10;;;;;;;;;;5073786;28;20465;-69
2021/08/20 02:31:29;;;;;;;22.87;15.40;;;;;;;;;;5073488;28;20971;-69
2021/08/20 02:33:57;;;;;;;18.03;16.10;;;;;;;;;;5073888;28;20910;-69
2021/08/20 02:36:24;;;;;;;22.10;15.27;;;;;;;;;;5074095;28;20448;-69
2021/08/20 02:38:52;;;;;;;22.27;15.40;;;;;;;;;;5073359;28;20442;-69
2021/08/20 02:41:19;;;;;;;18.20;14.03;;;;;;;;;;5074038;28;20939;-69
2021/08/20 02:43:46;;;;;;;16.23;14.27;;;;;;;;;;5073593;28;20433;-69
2021/08/20 02:46:13;;;;;;;18.03;15.30;;;;;;;;;;5074181;28;20447;-69
2021/08/20 02:48:42;;;;;;;16.00;14.20;;;;;;;;;;5073542;28;20444;-69
2021/08/20 02:51:10;;;;;;;17.67;15.07;;;;;;;;;;5073696;28;20477;-69
2021/08/20 02:53:40;;;;;;;16.90;15.20;;;;;;;;;;5073198;28;20458;-69
2021/08/20 02:56:07;;;;;;;20.03;16.57;;;;;;;;;;5073425;28;20447;-69
2021/08/20 02:58:34;;;;;;;18.87;15.30;;;;;;;;;;5073409;28;20440;-69
2021/08/20 03:01:01;;;;;;;18.13;15.00;;;;;;;;;;5073019;28;20460;-69
2021/08/20 03:03:28;;;;;;;22.00;15.53;;;;;;;;;;5073203;28;20443;-69
2021/08/20 03:05:56;;;;;;;17.13;14.80;;;;;;;;;;5075822;28;20450;-69
2021/08/20 03:08:24;;;;;;;20.63;14.97;;;;;;;;;;5077591;28;20582;-69
2021/08/20 03:10:51;;;;;;;16.57;14.80;;;;;;;;;;5077424;28;20475;-69
2021/08/20 03:13:18;;;;;;;18.80;15.90;;;;;;;;;;5077482;28;20445;-69
2021/08/20 03:15:46;;;;;;;21.77;15.30;;;;;;;;;;5077099;28;20921;-69
2021/08/20 03:18:13;;;;;;;16.23;14.53;;;;;;;;;;5077356;28;20438;-69
2021/08/20 03:20:40;;;;;;;17.97;15.87;;;;;;;;;;5077636;28;20446;-69
2021/08/20 03:23:07;;;;;;;24.97;17.50;;;;;;;;;;5077070;28;20471;-68
2021/08/20 03:25:36;;;;;;;18.87;16.67;;;;;;;;;;5077525;28;20461;-69
2021/08/20 03:28:06;;;;;;;24.10;15.50;;;;;;;;;;5077550;28;20445;-69
2021/08/20 03:30:33;;;;;;;25.60;17.30;;;;;;;;;;5077000;28;20507;-68
2021/08/20 03:33:00;;;;;;;19.73;16.70;;;;;;;;;;5077035;28;20453;-69
2021/08/20 03:35:27;;;;;;;23.60;18.07;;;;;;;;;;5077153;28;20798;-69
2021/08/20 03:37:58;;;;;;;23.03;16.67;;;;;;;;;;5076957;28;20802;-69
2021/08/20 03:40:25;;;;;;;23.43;18.40;;;;;;;;;;5077573;28;20786;-69
2021/08/20 03:42:53;;;;;;;25.37;18.27;;;;;;;;;;5077352;28;20452;-69
2021/08/20 03:45:21;;;;;;;28.27;18.30;;;;;;;;;;5076817;28;20477;-69
2021/08/20 03:47:48;;;;;;;25.63;18.50;;;;;;;;;;5076456;28;20456;-69
2021/08/20 03:50:15;;;;;;;24.87;18.43;;;;;;;;;;5076332;28;20481;-69
2021/08/20 03:52:42;;;;;;;28.40;19.80;;;;;;;;;;5076922;28;20438;-69
2021/08/20 03:55:10;;;;;;;23.57;19.13;;;;;;;;;;5076772;28;20458;-69
2021/08/20 03:57:37;;;;;;;26.93;19.17;;;;;;;;;;5076712;28;20469;-69
2021/08/20 04:00:07;;;;;;;29.73;21.13;;;;;;;;;;5076201;28;20967;-69
2021/08/20 04:02:34;;;;;;;26.40;19.77;;;;;;;;;;5076407;28;20940;-68
2021/08/20 04:05:02;;;;;;;27.13;20.60;;;;;;;;;;5076614;28;20448;-68
2021/08/20 04:07:29;;;;;;;28.97;20.30;;;;;;;;;;5076446;28;20543;-69
2021/08/20 04:09:56;;;;;;;27.40;20.00;;;;;;;;;;5076466;28;20442;-69
2021/08/20 04:12:23;;;;;;;33.87;20.10;;;;;;;;;;5076737;28;20447;-68
2021/08/20 04:14:50;;;;;;;25.53;19.77;;;;;;;;;;5076468;28;20450;-70
2021/08/20 04:17:19;;;;;;;22.97;19.43;;;;;;;;;;5076167;28;20461;-68
2021/08/20 04:19:46;;;;;;;23.97;20.00;;;;;;;;;;5076272;28;20437;-69
2021/08/20 04:22:13;;;;;;;31.17;20.53;;;;;;;;;;5076473;28;20477;-69
2021/08/20 04:24:42;;;;;;;29.20;19.10;;;;;;;;;;5076592;28;20541;-69
2021/08/20 04:27:09;;;;;;;27.80;20.23;;;;;;;;;;5082883;28;20778;-69
2021/08/20 04:29:36;;;;;;;26.13;21.10;;;;;;;;;;5095324;28;20489;-69
2021/08/20 04:32:04;;;;;;;23.77;19.10;;;;;;;;;;5094282;28;20488;-68
2021/08/20 04:34:32;;;;;;;31.43;21.10;;;;;;;;;;5095272;28;20446;-69
2021/08/20 04:36:59;;;;;;;27.83;20.33;;;;;;;;;;5094859;28;20448;-69
2021/08/20 04:39:26;;;;;;;25.27;19.23;;;;;;;;;;5095308;28;20790;-69
2021/08/20 04:41:54;;;;;;;24.67;19.40;;;;;;;;;;5095099;28;20544;-69
2021/08/20 04:44:21;;;;;;;27.57;22.10;;;;;;;;;;5095060;28;20442;-69
2021/08/20 04:46:48;;;;;;;27.27;19.87;;;;;;;;;;5094876;28;20868;-69
2021/08/20 04:49:16;;;;;;;23.47;19.40;;;;;;;;;;5094911;28;20438;-69
2021/08/20 04:51:44;;;;;;;24.93;20.63;;;;;;;;;;5095856;28;20473;-69
2021/08/20 04:54:11;;;;;;;24.13;18.57;;;;;;;;;;5095701;28;20790;-68
2021/08/20 04:56:39;;;;;;;27.00;20.07;;;;;;;;;;5094904;28;20445;-69
2021/08/20 04:59:06;;;;;;;25.80;20.20;;;;;;;;;;5078525;28;20864;-68
2021/08/20 05:01:33;;;;;;;28.93;19.53;;;;;;;;;;5075510;28;20445;-69
2021/08/20 05:04:01;;;;;;;25.57;19.97;;;;;;;;;;5074856;28;20453;-69
2021/08/20 05:06:28;;;;;;;27.57;20.37;;;;;;;;;;5074982;28;20447;-68
2021/08/20 05:08:57;;;;;;;32.93;21.50;;;;;;;;;;5075031;28;20540;-69
2021/08/20 05:11:24;;;;;;;27.13;19.97;;;;;;;;;;5074837;28;20480;-69
2021/08/20 05:13:51;;;;;;;29.60;20.53;;;;;;;;;;5074678;28;20437;-69
2021/08/20 05:16:18;;;;;;;26.07;19.73;;;;;;;;;;5075476;28;20437;-69
2021/08/20 05:18:45;;;;;;;26.10;20.33;;;;;;;;;;5074382;28;20459;-68
2021/08/20 05:21:13;;;;;;;29.27;19.37;;;;;;;;;;5073832;28;20459;-69
2021/08/20 05:23:40;;;;;;;24.50;20.63;;;;;;;;;;5073478;28;20482;-69
2021/08/20 05:26:09;;;;;;;31.83;22.07;;;;;;;;;;5073376;28;20449;-68
2021/08/20 05:28:36;;;;;;;31.43;21.50;;;;;;;;;;5073792;28;20456;-68
2021/08/20 05:31:03;;;;;;;24.30;21.70;;;;;;;;;;5074494;28;20478;-68
2021/08/20 05:33:30;;;;;;;28.30;22.30;;;;;;;;;;5074497;28;20452;-65
2021/08/20 05:35:57;;;;;;;27.07;21.23;;;;;;;;;;5074855;28;20471;-69
2021/08/20 05:38:25;;;;;;;29.87;21.80;;;;;;;;;;5074472;28;20488;-69
2021/08/20 05:40:52;;;;;;;29.20;21.73;;;;;;;;;;5074060;28;20457;-69
2021/08/20 05:43:20;;;;;;;36.33;22.60;;;;;;;;;;5074184;28;20442;-69
2021/08/20 05:45:48;;;;;;;34.80;22.13;;;;;;;;;;5074365;28;20435;-69
2021/08/20 05:48:15;;;;;;;22.83;19.87;;;;;;;;;;5074105;28;20528;-69
2021/08/20 05:50:42;;;;;;;31.27;21.90;;;;;;;;;;5074505;28;20432;-69
2021/08/20 05:53:10;;;;;;;26.00;19.37;;;;;;;;;;5073969;28;20456;-69
2021/08/20 05:55:38;;;;;;;30.20;20.60;;;;;;;;;;5073951;28;20829;-69
2021/08/20 05:58:05;;;;;;;26.73;21.23;;;;;;;;;;5073710;28;20448;-69
2021/08/20 06:00:34;;;;;;;29.97;23.73;;;;;;;;;;5074176;28;20452;-69
2021/08/20 06:03:01;;;;;;;28.50;20.07;;;;;;;;;;5074092;28;20545;-70
2021/08/20 06:05:28;;;;;;;25.30;21.27;;;;;;;;;;5074100;28;20529;-69
2021/08/20 06:07:56;;;;;;;29.90;21.83;;;;;;;;;;5073203;28;20470;-69
2021/08/20 06:10:23;;;;;;;26.00;19.50;;;;;;;;;;5073769;28;20443;-70
2021/08/20 06:12:50;;;;;;;33.60;21.37;;;;;;;;;;5073765;28;21090;-69
2021/08/20 06:15:18;;;;;;;31.00;21.70;;;;;;;;;;5073930;28;20443;-69
2021/08/20 06:17:46;;;;;;;28.23;21.40;;;;;;;;;;5073721;28;20441;-70
2021/08/20 06:20:14;;;;;;;28.43;19.10;;;;;;;;;;5073603;28;20474;-70
2021/08/20 06:22:41;;;;;;;24.57;19.70;;;;;;;;;;5074070;28;20809;-69
2021/08/20 06:25:10;;;;;;;30.00;20.93;;;;;;;;;;5073743;28;20443;-70
2021/08/20 06:27:37;;;;;;;27.37;21.10;;;;;;;;;;5073295;28;20804;-70
2021/08/20 06:30:04;;;;;;;30.70;22.57;;;;;;;;;;5073566;28;20438;-70
2021/08/20 06:32:32;;;;;;;29.90;21.27;;;;;;;;;;5073545;28;20482;-69
2021/08/20 06:35:00;;;;;;;26.13;20.40;;;;;;;;;;5073868;28;20441;-69
2021/08/20 06:37:27;;;;;;;28.23;21.80;;;;;;;;;;5073345;28;20444;-69
2021/08/20 06:39:55;;;;;;;33.50;19.63;;;;;;;;;;5072694;28;20434;-70
2021/08/20 06:42:22;;;;;;;32.70;23.30;;;;;;;;;;5073921;28;20517;-70
2021/08/20 06:44:49;;;;;;;26.67;19.83;;;;;;;;;;5073586;28;20441;-70
2021/08/20 06:47:17;;;;;;;28.03;21.00;;;;;;;;;;5073387;28;20948;-69
2021/08/20 06:49:44;;;;;;;25.03;21.83;;;;;;;;;;5073547;28;20443;-69
2021/08/20 06:52:13;;;;;;;28.17;19.57;;;;;;;;;;5073112;28;20481;-69
2021/08/20 06:54:40;;;;;;;28.90;20.57;;;;;;;;;;5073631;28;20448;-69
2021/08/20 06:57:07;;;;;;;31.00;21.57;;;;;;;;;;5072768;28;20961;-69
2021/08/20 06:59:36;;;;;;;30.10;22.27;;;;;;;;;;5073193;28;20944;-69
2021/08/20 07:02:03;;;;;;;29.57;21.50;;;;;;;;;;5073532;28;20441;-71
2021/08/20 07:04:33;;;;;;;29.90;22.00;;;;;;;;;;5073254;28;20541;-69
2021/08/20 07:07:00;;;;;;;36.50;23.07;;;;;;;;;;5073367;28;20444;-69
2021/08/20 07:09:29;;;;;;;31.73;23.80;;;;;;;;;;5072974;28;20442;-69
2021/08/20 07:11:56;;;;;;;28.90;22.93;;;;;;;;;;5073248;28;20510;-69
2021/08/20 07:14:23;;;;;;;35.30;25.00;;;;;;;;;;5073870;28;20443;-69
2021/08/20 07:16:50;;;;;;;33.07;24.77;;;;;;;;;;5072960;28;20449;-69
2021/08/20 07:19:17;;;;;;;37.10;25.20;;;;;;;;;;5073134;28;20814;-69
2021/08/20 07:21:45;;;;;;;34.20;24.47;;;;;;;;;;5073090;28;20532;-69
2021/08/20 07:24:12;;;;;;;28.07;22.27;;;;;;;;;;5073413;28;20478;-69
2021/08/20 07:26:40;;;;;;;31.37;24.03;;;;;;;;;;5072889;28;20527;-69
2021/08/20 07:29:07;;;;;;;30.73;23.90;;;;;;;;;;5073108;28;20472;-69
2021/08/20 07:31:35;;;;;;;30.07;23.27;;;;;;;;;;5086199;28;20909;-69
2021/08/20 07:34:03;;;;;;;28.03;21.97;;;;;;;;;;5093356;28;20453;-70
2021/08/20 07:36:30;;;;;;;30.67;21.57;;;;;;;;;;5093169;28;20450;-70
2021/08/20 07:38:57;;;;;;;27.67;20.83;;;;;;;;;;5093174;28;20440;-70
2021/08/20 07:41:24;;;;;;;30.63;21.87;;;;;;;;;;5091868;28;20534;-69
2021/08/20 07:43:53;;;;;;;29.10;22.73;;;;;;;;;;5091808;28;20470;-69
2021/08/20 07:46:20;;;;;;;31.07;25.40;;;;;;;;;;5092527;28;20761;-69
2021/08/20 07:48:47;;;;;;;31.50;23.17;;;;;;;;;;5091603;28;20535;-69
2021/08/20 07:51:14;;;;;;;28.97;23.63;;;;;;;;;;5092485;28;20438;-69
2021/08/20 07:53:41;;;;;;;30.23;23.03;;;;;;;;;;5096299;28;20929;-68
2021/08/20 07:56:09;;;;;;;35.87;24.67;;;;;;;;;;5096637;28;20494;-69
2021/08/20 07:58:36;;;;;;;32.17;22.50;;;;;;;;;;5096666;28;20447;-69
2021/08/20 08:01:04;;;;;;;32.30;24.37;;;;;;;;;;5083644;28;20452;-68
2021/08/20 08:03:32;;;;;;;30.97;24.10;;;;;;;;;;5076317;28;20798;-68
2021/08/20 08:05:59;;;;;;;31.27;23.03;;;;;;;;;;5076137;28;20451;-69
2021/08/20 08:08:26;;;;;;;29.60;22.30;;;;;;;;;;5076108;28;20765;-69
2021/08/20 08:10:53;;;;;;;36.43;25.23;;;;;;;;;;5076163;28;20444;-69
2021/08/20 08:13:20;;;;;;;34.27;22.10;;;;;;;;;;5076155;28;20479;-68
2021/08/20 08:15:47;;;;;;;34.37;26.23;;;;;;;;;;5075782;28;20476;-69
2021/08/20 08:18:16;;;;;;;36.03;26.17;;;;;;;;;;5076127;28;20495;-69
2021/08/20 08:20:43;;;;;;;35.97;25.60;;;;;;;;;;5075717;28;20453;-69
2021/08/20 08:23:10;;;;;;;33.70;24.53;;;;;;;;;;5075648;28;20560;-69
2021/08/20 08:25:37;;;;;;;36.80;26.27;;;;;;;;;;5075782;28;20451;-69
2021/08/20 08:28:05;;;;;;;32.63;24.10;;;;;;;;;;5076131;28;21018;-69
2021/08/20 08:30:35;;;;;;;30.10;22.10;;;;;;;;;;5076503;28;20442;-69
2021/08/20 08:33:02;;;;;;;37.60;22.70;;;;;;;;;;5073240;28;20493;-69
2021/08/20 08:35:31;;;;;;;28.07;20.50;;;;;;;;;;5075550;28;20537;-69
2021/08/20 08:38:28;;;;;;;33.47;21.70;;;;;;;;;;5075813;28;20445;-69
2021/08/20 08:40:56;;;;;;;30.50;20.60;;;;;;;;;;5074702;28;20459;-69
2021/08/20 08:43:24;;;;;;;27.67;20.20;;;;;;;;;;5075457;28;20516;-69
2021/08/20 08:45:51;;;;;;;24.80;19.03;;;;;;;;;;5075148;28;20926;-68
2021/08/20 08:48:18;;;;;;;26.50;18.50;;;;;;;;;;5075605;28;20477;-69
2021/08/20 08:50:48;;;;;;;30.93;20.63;;;;;;;;;;5075700;28;20444;-69
2021/08/20 08:53:16;;;;;;;37.50;20.90;;;;;;;;;;5074949;28;20473;-69
2021/08/20 08:55:43;;;;;;;31.50;20.50;;;;;;;;;;5075485;28;20445;-69
2021/08/20 08:58:10;;;;;;;31.87;20.37;;;;;;;;;;5075313;28;20523;-69
2021/08/20 09:00:38;;;;;;;29.33;19.20;;;;;;;;;;5075351;28;20442;-69
2021/08/20 09:03:05;;;;;;;30.40;19.77;;;;;;;;;;5072441;28;20453;-69
2021/08/20 09:05:42;;;;;;;32.57;19.87;;;;;;;;;;5074802;28;20445;-69
2021/08/20 09:08:13;;;;;;;28.30;18.00;;;;;;;;;;5075446;28;20416;-69
2021/08/20 09:10:48;;;;;;;29.60;19.53;;;;;;;;;;5075004;28;20454;-69
2021/08/20 09:13:16;;;;;;;30.67;18.20;;;;;;;;;;5074572;28;20513;-69
2021/08/20 09:15:45;;;;;;;28.90;19.20;;;;;;;;;;5075294;28;20441;-69
2021/08/20 09:18:20;;;;;;;24.90;16.83;;;;;;;;;;5075023;28;20441;-69
2021/08/20 09:20:47;;;;;;;27.33;19.90;;;;;;;;;;5075238;28;20426;-69
2021/08/20 09:23:19;;;;;;;30.23;19.40;;;;;;;;;;5074077;28;20481;-69
2021/08/20 09:25:47;;;;;;;27.93;19.67;;;;;;;;;;5075316;28;20440;-69
2021/08/20 09:28:19;;;;;;;27.23;19.27;;;;;;;;;;5075122;28;20517;-69
2021/08/20 09:30:58;;;;;;;25.00;18.47;;;;;;;;;;5074929;28;20446;-69
2021/08/20 09:33:26;;;;;;;36.20;19.53;;;;;;;;;;5073902;28;20548;-69
2021/08/20 09:35:57;;;;;;;27.13;19.27;;;;;;;;;;5074816;28;20448;-69
2021/08/20 09:38:25;;;;;;;33.10;19.03;;;;;;;;;;5074297;28;20429;-69
2021/08/20 09:40:56;;;;;;;33.40;20.70;;;;;;;;;;5075002;28;20540;-69
2021/08/20 09:43:27;;;;;;;26.40;17.20;;;;;;;;;;5074440;28;20488;-69
2021/08/20 09:45:59;;;;;;;32.57;19.10;;;;;;;;;;5074251;28;20462;-69
2021/08/20 09:48:42;;;;;;;31.10;19.40;;;;;;;;;;5074125;28;20930;-69
2021/08/20 09:51:10;;;;;;;38.97;24.17;;;;;;;;;;5074484;28;20447;-69
2021/08/20 09:53:38;;;;;;;35.13;21.80;;;;;;;;;;5074275;28;20484;-69
2021/08/20 09:56:06;;;;;;;30.57;18.80;;;;;;;;;;5073939;28;20452;-69
2021/08/20 09:58:34;;;;;;;35.70;22.30;;;;;;;;;;5073712;28;20441;-69
2021/08/20 10:01:02;;;;;;;32.17;20.90;;;;;;;;;;5074922;28;20438;-69
2021/08/20 10:03:29;;;;;;;30.43;20.00;;;;;;;;;;5071757;28;20442;-69
2021/08/20 10:05:58;;;;;;;37.63;20.83;;;;;;;;;;5074560;28;20541;-72
2021/08/20 10:08:26;;;;;;;29.17;18.77;;;;;;;;;;5074073;28;20536;-69
2021/08/20 10:10:57;;;;;;;37.17;21.07;;;;;;;;;;5073677;28;20451;-69
2021/08/20 10:13:25;;;;;;;30.77;19.83;;;;;;;;;;5073468;28;20471;-69
2021/08/20 10:15:52;;;;;;;38.20;20.93;;;;;;;;;;5074141;28;20455;-69
2021/08/20 10:18:19;;;;;;;26.90;20.10;;;;;;;;;;5073664;28;20449;-69
2021/08/20 10:20:46;;;;;;;30.70;18.77;;;;;;;;;;5073927;28;20475;-69
2021/08/20 10:23:15;;;;;;;24.67;17.87;;;;;;;;;;5072907;28;20550;-69
2021/08/20 10:25:43;;;;;;;26.40;18.17;;;;;;;;;;5073827;28;20498;-70
2021/08/20 10:28:14;;;;;;;27.37;18.80;;;;;;;;;;5073893;28;20521;-69
2021/08/20 10:30:44;;;;;;;30.23;19.30;;;;;;;;;;5073868;28;20431;-70
2021/08/20 10:33:11;;;;;;;30.73;19.83;;;;;;;;;;5071702;28;20487;-71
2021/08/20 10:35:52;;;;;;;29.73;19.67;;;;;;;;;;5073412;28;20438;-70
2021/08/20 10:38:25;;;;;;;22.90;15.23;;;;;;;;;;5074095;28;20470;-70
2021/08/20 10:41:09;;;;;;;26.50;19.43;;;;;;;;;;5073859;28;20799;-70
2021/08/20 10:43:52;;;;;;;27.70;19.27;;;;;;;;;;5073788;28;20442;-70
2021/08/20 10:46:38;;;;;;;25.30;18.20;;;;;;;;;;5073404;28;20462;-70
2021/08/20 10:49:20;;;;;;;23.13;17.70;;;;;;;;;;5073802;28;20457;-70
2021/08/20 10:52:02;;;;;;;24.03;15.03;;;;;;;;;;5073634;28;20446;-70
2021/08/20 10:54:47;;;;;;;23.17;19.73;;;;;;;;;;5071269;28;20489;-70
2021/08/20 10:57:29;;;;;;;19.93;13.43;;;;;;;;;;5073658;28;20474;-69
2021/08/20 10:59:58;;;;;;;23.20;16.00;;;;;;;;;;5073163;28;20450;-70
2021/08/20 11:02:42;;;;;;;18.53;16.40;;;;;;;;;;5071977;28;20792;-69
2021/08/20 11:05:10;;;;;;;16.40;14.53;;;;;;;;;;5073406;28;20486;-70
2021/08/20 11:07:44;;;;;;;21.27;17.27;;;;;;;;;;5073568;28;20446;-69
2021/08/20 11:10:30;;;;;;;18.67;15.67;;;;;;;;;;5073188;28;20489;-70
2021/08/20 11:13:01;;;;;;;21.03;15.73;;;;;;;;;;5073368;28;20571;-68
2021/08/20 11:15:45;;;;;;;17.40;12.43;;;;;;;;;;5073359;28;20456;-68
2021/08/20 11:18:13;;;;;;;16.40;14.60;;;;;;;;;;5073324;28;20456;-68
2021/08/20 11:20:41;;;;;;;13.37;11.97;;;;;;;;;;5073318;28;20483;-68
2021/08/20 11:23:15;;;;;;;12.10;9.47;;;;;;;;;;5072465;28;20481;-68
2021/08/20 11:25:43;;;;;;;14.00;12.47;;;;;;;;;;5073251;28;20437;-67
2021/08/20 11:28:11;;;;;;;15.33;11.03;;;;;;;;;;5076915;28;20930;-68
2021/08/20 11:30:39;;;;;;;18.13;11.63;;;;;;;;;;5076869;28;20448;-68
2021/08/20 11:33:15;;;;;;;11.20;9.63;;;;;;;;;;5074698;28;20490;-68
2021/08/20 11:35:42;;;;;;;13.23;10.87;;;;;;;;;;5077042;28;20504;-67
2021/08/20 11:38:10;;;;;;;10.77;9.67;;;;;;;;;;5077019;28;20550;-68
2021/08/20 11:40:50;;;;;;;10.37;9.37;;;;;;;;;;5077020;28;20442;-67
2021/08/20 11:43:18;;;;;;;10.83;9.23;;;;;;;;;;5075461;28;21023;-68
2021/08/20 11:45:45;;;;;;;11.10;9.40;;;;;;;;;;5075475;28;20470;-67
2021/08/20 11:48:13;;;;;;;11.70;10.50;;;;;;;;;;5076479;28;20444;-68
2021/08/20 11:50:47;;;;;;;12.23;11.13;;;;;;;;;;5076690;28;20439;-68
2021/08/20 11:53:20;;;;;;;9.17;8.17;;;;;;;;;;5076302;28;20468;-67
2021/08/20 11:55:48;;;;;;;8.97;8.00;;;;;;;;;;5076784;28;20519;-67
2021/08/20 11:58:25;;;;;;;6.80;6.20;;;;;;;;;;5076285;28;21036;-67
2021/08/20 12:00:53;;;;;;;7.00;6.30;;;;;;;;;;5076524;28;20432;-67
2021/08/20 12:03:20;;;;;;;6.30;5.70;;;;;;;;;;5074321;28;20559;-69
2021/08/20 12:05:48;;;;;;;8.23;6.60;;;;;;;;;;5076227;28;20476;-67
2021/08/20 12:08:17;;;;;;;6.23;5.63;;;;;;;;;;5076629;28;20444;-67
2021/08/20 12:10:45;;;;;;;7.80;6.90;;;;;;;;;;5075742;28;20454;-67
2021/08/20 12:13:13;;;;;;;9.10;5.80;;;;;;;;;;5076015;28;20486;-67
2021/08/20 12:15:40;;;;;;;5.00;4.70;;;;;;;;;;5076701;28;20795;-67
2021/08/20 12:18:20;;;;;;;6.30;5.70;;;;;;;;;;5076180;28;20443;-67
2021/08/20 12:20:49;;;;;;;5.13;4.73;;;;;;;;;;5076464;28;20483;-67
2021/08/20 12:23:16;;;;;;;6.73;6.10;;;;;;;;;;5075535;28;20927;-67
2021/08/20 12:25:44;;;;;;;5.80;5.30;;;;;;;;;;5075858;28;20452;-67
2021/08/20 12:28:12;;;;;;;5.67;5.17;;;;;;;;;;5076284;28;20450;-66
2021/08/20 12:30:39;;;;;;;6.03;5.53;;;;;;;;;;5075854;28;20516;-67
2021/08/20 12:33:07;;;;;;;8.00;7.30;;;;;;;;;;5073588;28;20646;-67
2021/08/20 12:35:34;;;;;;;7.50;6.80;;;;;;;;;;5075057;28;20455;-68
2021/08/20 12:38:11;;;;;;;7.50;6.90;;;;;;;;;;5074897;28;20874;-68
2021/08/20 12:40:39;;;;;;;6.27;5.77;;;;;;;;;;5076213;28;20498;-68
2021/08/20 12:43:21;;;;;;;5.80;5.30;;;;;;;;;;5075479;28;20462;-68
2021/08/20 12:46:01;;;;;;;6.57;5.97;;;;;;;;;;5075698;28;20474;-69
2021/08/20 12:48:28;;;;;;;5.83;5.33;;;;;;;;;;5074985;28;20431;-66
2021/08/20 12:50:59;;;;;;;5.33;4.93;;;;;;;;;;5075343;28;20808;-66
2021/08/20 12:53:30;;;;;;;4.97;4.57;;;;;;;;;;5075241;28;20472;-66
2021/08/20 12:55:57;;;;;;;5.47;4.97;;;;;;;;;;5075567;28;20436;-66
2021/08/20 12:58:26;;;;;;;6.27;5.47;;;;;;;;;;5075143;28;20441;-66
2021/08/20 13:00:54;;;;;;;6.70;6.10;;;;;;;;;;5074785;28;20444;-65
2021/08/20 13:03:21;;;;;;;6.30;5.80;;;;;;;;;;5079102;28;20483;-66
2021/08/20 13:05:52;;;;;;;5.87;5.37;;;;;;;;;;5095353;28;20475;-65
2021/08/20 13:08:20;;;;;;;6.20;5.60;;;;;;;;;;5095310;28;20705;-67
2021/08/20 13:10:48;;;;;;;6.17;5.17;;;;;;;;;;5093751;28;20445;-66
2021/08/20 13:13:15;;;;;;;5.90;5.40;;;;;;;;;;5094333;28;20503;-66
2021/08/20 13:15:43;;;;;;;5.50;5.00;;;;;;;;;;5094686;28;20956;-66
2021/08/20 13:18:10;;;;;;;6.47;5.90;;;;;;;;;;5094742;28;20450;-66
2021/08/20 13:20:37;;;;;;;4.73;4.33;;;;;;;;;;5095117;28;20440;-65
2021/08/20 13:23:05;;;;;;;5.23;4.70;;;;;;;;;;5094145;28;20475;-66
2021/08/20 13:25:32;;;;;;;7.33;5.80;;;;;;;;;;5093791;28;20501;-66
2021/08/20 13:28:01;;;;;;;5.43;5.00;;;;;;;;;;5094901;28;20432;-66
2021/08/20 13:30:28;;;;;;;6.80;5.73;;;;;;;;;;5095257;28;20437;-65
2021/08/20 13:32:55;;;;;;;5.80;5.30;;;;;;;;;;5093205;28;20447;-66
2021/08/20 13:35:22;;;;;;;6.30;5.70;;;;;;;;;;5072426;28;20532;-66
2021/08/20 13:37:50;;;;;;;5.87;5.27;;;;;;;;;;5075189;28;20428;-66
2021/08/20 13:40:17;;;;;;;6.97;6.37;;;;;;;;;;5075337;28;20449;-66
2021/08/20 13:42:44;;;;;;;6.83;6.20;;;;;;;;;;5074302;28;20443;-66
2021/08/20 13:45:13;;;;;;;6.10;5.60;;;;;;;;;;5074025;28;20469;-66
2021/08/20 13:47:40;;;;;;;6.53;5.30;;;;;;;;;;5073986;28;20445;-66
2021/08/20 13:50:08;;;;;;;5.07;4.57;;;;;;;;;;5073721;28;20515;-66
2021/08/20 13:52:35;;;;;;;5.00;4.63;;;;;;;;;;5073999;28;20970;-65
2021/08/20 13:55:03;;;;;;;5.07;4.70;;;;;;;;;;5073526;28;20508;-67
2021/08/20 13:57:32;;;;;;;5.00;4.10;;;;;;;;;;5073771;28;20950;-66
2021/08/20 13:59:59;;;;;;;4.43;4.03;;;;;;;;;;5074063;28;20447;-66
2021/08/20 14:02:28;;;;;;;4.57;4.20;;;;;;;;;;5074646;28;20788;-66
2021/08/20 14:04:55;;;;;;;5.07;4.67;;;;;;;;;;5072368;28;20471;-67
2021/08/20 14:07:22;;;;;;;4.50;4.10;;;;;;;;;;5073897;28;20446;-67
2021/08/20 14:09:49;;;;;;;6.90;5.07;;;;;;;;;;5074129;28;20464;-66
2021/08/20 14:12:18;;;;;;;5.90;5.30;;;;;;;;;;5072783;28;20962;-66
2021/08/20 14:14:45;;;;;;;6.10;5.10;;;;;;;;;;5073793;28;20480;-66
2021/08/20 14:17:12;;;;;;;5.37;4.87;;;;;;;;;;5073649;28;20531;-66
2021/08/20 14:19:40;;;;;;;5.70;5.30;;;;;;;;;;5073468;28;20453;-66
2021/08/20 14:22:08;;;;;;;6.13;5.53;;;;;;;;;;5073457;28;20492;-65
2021/08/20 14:24:35;;;;;;;6.53;5.93;;;;;;;;;;5073527;28;20436;-67
2021/08/20 14:27:02;;;;;;;6.30;5.80;;;;;;;;;;5073547;28;20448;-65
2021/08/20 14:29:29;;;;;;;7.40;5.87;;;;;;;;;;5073900;28;20445;-65